หน้าหลัก
METAR-TAF:

METAR-TAF

ท่าอากาศยาน :

Poprad, สโลวาเกีย

ละติจูด: 49-04N, ลองจิจูด: 020-15E, ความสูง: 694 ม.

การสังเกตสภาพอากาศปัจจุบัน

รายงานได้ทำขึ้นเมื่อ 54 นาทีที่แล้ว ณ เวลา 17:30 UTC
ลม 8 นอตจากตะวันออก/ตะวันออกเฉียงเหนือ
อุณหภูมิ 22°C
ความชื้น 60%
ความกดอากาศ 1013 hPa
ทัศนวิสัย 10 กม. หรือมากกว่า
มีเมฆน้อยที่ความสูง 4600 ฟุต

METAR: LZTT 201730Z 06008KT 9999 FEW046 22/14 Q1013

เวลา: 20:24 (18:24 UTC)

การพยากรณ์

รายงานได้ทำขึ้นเมื่อ 1 ชั่วโมงและ 9 นาทีที่แล้ว ณ เวลา 17:15 UTC
การพยากรณ์มีผลตั้งแต่วันที่ 20 ณ เวลา 18 UTC จนถึงวันที่ 21 ณ เวลา 18 UTC
ลม 7 นอตจากตะวันออกเฉียงเหนือ
ทัศนวิสัย 10 กม. หรือมากกว่า
มีเมฆกระจายเป็นบางส่วนที่ความสูง 4000 ฟุต
กำลังกลายเป็น
ตั้งแต่วันที่ 20 ณ เวลา 18 UTC จนถึงวันที่ 20 ณ เวลา 20 UTC
ลม 2 นอตจากทิศทางซึ่งแปรผันได้

TAF: LZTT 201715Z 2018/2118 05007KT 9999 SCT040 BECMG 2018/2020 VRB02KT

สังเกตการณ์สภาพอากาศและพยากรณ์อากาศของสนามบินมากกว่า 4000 แห่ง (รายงาน METAR และ TAF).

สถานีที่ดูได้จะแสดงไว้ด้วยจุดสีเหลืองและสีแดงบนแผนที่.

เลื่อนเมาส์ไปเหนือจุดเพื่อดูชื่อสถานี.

แล้วคลิกเพื่อดูสังเกตการณ์และการพยากรณ์สภาพอากาศ.

ในการเปลี่ยนแผนที่: คลิกที่ปุ่มสีเขียวที่มีกากบาทสีดำเพื่อซูมเข้า; ที่ปุ่มสีเขียวที่มีขีดเพื่อซูมออก; หรือที่ลูกศรสีเขียวเพื่อไปยังแผนที่ที่อยู่ติดกัน.


METAR-TAF: